sensor_id;sensor_type;location;lat;lon;timestamp;P1;durP1;ratioP1;P2;durP2;ratioP2
47021;SDS011;32779;52.264;6.154;2023-03-01T00:01:10;20.45;;;10.23;;
47021;SDS011;32779;52.264;6.154;2023-03-01T00:03:38;14.38;;;9.30;;
47021;SDS011;32779;52.264;6.154;2023-03-01T00:06:04;14.95;;;9.75;;
47021;SDS011;32779;52.264;6.154;2023-03-01T00:08:31;14.63;;;9.48;;
47021;SDS011;32779;52.264;6.154;2023-03-01T00:11:12;14.27;;;9.13;;
47021;SDS011;32779;52.264;6.154;2023-03-01T00:13:39;14.75;;;9.07;;
47021;SDS011;32779;52.264;6.154;2023-03-01T00:16:06;15.77;;;9.57;;
47021;SDS011;32779;52.264;6.154;2023-03-01T00:18:34;16.38;;;9.93;;
47021;SDS011;32779;52.264;6.154;2023-03-01T00:21:00;13.73;;;7.75;;
47021;SDS011;32779;52.264;6.154;2023-03-01T00:23:26;14.40;;;7.88;;
47021;SDS011;32779;52.264;6.154;2023-03-01T00:25:52;17.67;;;9.05;;
47021;SDS011;32779;52.264;6.154;2023-03-01T00:28:18;15.95;;;7.47;;
47021;SDS011;32779;52.264;6.154;2023-03-01T00:30:44;12.65;;;7.72;;
47021;SDS011;32779;52.264;6.154;2023-03-01T00:33:11;11.65;;;7.57;;
47021;SDS011;32779;52.264;6.154;2023-03-01T00:35:37;11.45;;;7.65;;
47021;SDS011;32779;52.264;6.154;2023-03-01T00:38:03;10.80;;;7.05;;
47021;SDS011;32779;52.264;6.154;2023-03-01T00:40:29;12.07;;;7.35;;
47021;SDS011;32779;52.264;6.154;2023-03-01T00:42:56;11.10;;;6.32;;
47021;SDS011;32779;52.264;6.154;2023-03-01T00:45:22;12.73;;;7.38;;
47021;SDS011;32779;52.264;6.154;2023-03-01T00:47:48;11.50;;;7.38;;
47021;SDS011;32779;52.264;6.154;2023-03-01T00:52:40;12.63;;;7.10;;
47021;SDS011;32779;52.264;6.154;2023-03-01T00:55:05;12.10;;;6.38;;
47021;SDS011;32779;52.264;6.154;2023-03-01T00:57:31;10.80;;;6.78;;
47021;SDS011;32779;52.264;6.154;2023-03-01T00:59:58;10.40;;;7.07;;
47021;SDS011;32779;52.264;6.154;2023-03-01T01:02:23;13.25;;;7.40;;
47021;SDS011;32779;52.264;6.154;2023-03-01T01:04:49;12.75;;;7.18;;
47021;SDS011;32779;52.264;6.154;2023-03-01T01:07:15;12.05;;;6.75;;
47021;SDS011;32779;52.264;6.154;2023-03-01T01:09:41;12.27;;;6.95;;
47021;SDS011;32779;52.264;6.154;2023-03-01T01:12:07;11.65;;;7.35;;
47021;SDS011;32779;52.264;6.154;2023-03-01T01:16:58;11.98;;;7.40;;
47021;SDS011;32779;52.264;6.154;2023-03-01T01:19:24;11.00;;;6.93;;
47021;SDS011;32779;52.264;6.154;2023-03-01T01:21:50;11.93;;;7.00;;
47021;SDS011;32779;52.264;6.154;2023-03-01T01:24:16;9.90;;;6.60;;
47021;SDS011;32779;52.264;6.154;2023-03-01T01:26:42;12.20;;;7.00;;
47021;SDS011;32779;52.264;6.154;2023-03-01T01:29:08;11.50;;;7.28;;
47021;SDS011;32779;52.264;6.154;2023-03-01T01:34:01;12.23;;;7.32;;
47021;SDS011;32779;52.264;6.154;2023-03-01T01:36:30;10.93;;;6.72;;
47021;SDS011;32779;52.264;6.154;2023-03-01T01:41:22;14.27;;;6.35;;
47021;SDS011;32779;52.264;6.154;2023-03-01T01:44:08;12.13;;;7.10;;
47021;SDS011;32779;52.264;6.154;2023-03-01T01:46:44;9.82;;;6.68;;
47021;SDS011;32779;52.264;6.154;2023-03-01T01:51:55;10.70;;;7.32;;
47021;SDS011;32779;52.264;6.154;2023-03-01T01:57:20;10.40;;;7.10;;
47021;SDS011;32779;52.264;6.154;2023-03-01T01:59:54;14.52;;;6.90;;
47021;SDS011;32779;52.264;6.154;2023-03-01T02:02:24;9.85;;;6.45;;
47021;SDS011;32779;52.264;6.154;2023-03-01T02:04:52;10.75;;;6.63;;
47021;SDS011;32779;52.264;6.154;2023-03-01T02:07:28;10.13;;;6.75;;
47021;SDS011;32779;52.264;6.154;2023-03-01T02:09:55;10.43;;;6.80;;
47021;SDS011;32779;52.264;6.154;2023-03-01T02:12:23;9.52;;;6.15;;
47021;SDS011;32779;52.264;6.154;2023-03-01T02:14:49;9.93;;;6.97;;
47021;SDS011;32779;52.264;6.154;2023-03-01T02:17:16;12.27;;;7.75;;
47021;SDS011;32779;52.264;6.154;2023-03-01T02:19:52;11.88;;;7.53;;
47021;SDS011;32779;52.264;6.154;2023-03-01T02:22:33;11.65;;;6.78;;
47021;SDS011;32779;52.264;6.154;2023-03-01T02:27:40;11.10;;;7.45;;
47021;SDS011;32779;52.264;6.154;2023-03-01T02:30:21;12.45;;;7.55;;
47021;SDS011;32779;52.264;6.154;2023-03-01T02:32:47;10.80;;;6.93;;
47021;SDS011;32779;52.264;6.154;2023-03-01T02:35:16;11.98;;;6.82;;
47021;SDS011;32779;52.264;6.154;2023-03-01T02:37:44;10.55;;;6.90;;
47021;SDS011;32779;52.264;6.154;2023-03-01T02:40:13;9.30;;;6.65;;
47021;SDS011;32779;52.264;6.154;2023-03-01T02:42:56;11.68;;;7.90;;
47021;SDS011;32779;52.264;6.154;2023-03-01T02:45:23;11.23;;;6.85;;
47021;SDS011;32779;52.264;6.154;2023-03-01T02:47:49;10.32;;;7.00;;
47021;SDS011;32779;52.264;6.154;2023-03-01T02:50:22;9.60;;;6.53;;
47021;SDS011;32779;52.264;6.154;2023-03-01T02:53:04;11.13;;;7.60;;
47021;SDS011;32779;52.264;6.154;2023-03-01T02:55:40;11.73;;;7.30;;
47021;SDS011;32779;52.264;6.154;2023-03-01T02:58:06;13.38;;;7.22;;
47021;SDS011;32779;52.264;6.154;2023-03-01T03:00:35;13.65;;;6.85;;
47021;SDS011;32779;52.264;6.154;2023-03-01T03:03:08;11.07;;;7.10;;
47021;SDS011;32779;52.264;6.154;2023-03-01T03:05:37;12.18;;;7.75;;
47021;SDS011;32779;52.264;6.154;2023-03-01T03:08:03;11.90;;;7.35;;
47021;SDS011;32779;52.264;6.154;2023-03-01T03:10:30;12.57;;;7.22;;
47021;SDS011;32779;52.264;6.154;2023-03-01T03:13:04;10.93;;;7.07;;
47021;SDS011;32779;52.264;6.154;2023-03-01T03:15:40;11.88;;;7.20;;
47021;SDS011;32779;52.264;6.154;2023-03-01T03:18:08;15.38;;;7.57;;
47021;SDS011;32779;52.264;6.154;2023-03-01T03:20:35;11.13;;;7.35;;
47021;SDS011;32779;52.264;6.154;2023-03-01T03:23:01;12.50;;;7.32;;
47021;SDS011;32779;52.264;6.154;2023-03-01T03:25:28;16.63;;;7.93;;
47021;SDS011;32779;52.264;6.154;2023-03-01T03:27:54;13.25;;;7.40;;
47021;SDS011;32779;52.264;6.154;2023-03-01T03:30:30;13.90;;;8.77;;
47021;SDS011;32779;52.264;6.154;2023-03-01T03:32:57;11.38;;;7.15;;
47021;SDS011;32779;52.264;6.154;2023-03-01T03:37:59;11.57;;;7.40;;
47021;SDS011;32779;52.264;6.154;2023-03-01T03:42:56;10.88;;;7.07;;
47021;SDS011;32779;52.264;6.154;2023-03-01T03:45:21;13.70;;;7.55;;
47021;SDS011;32779;52.264;6.154;2023-03-01T03:47:47;11.68;;;7.57;;
47021;SDS011;32779;52.264;6.154;2023-03-01T03:50:14;16.15;;;7.50;;
47021;SDS011;32779;52.264;6.154;2023-03-01T03:52:41;12.07;;;7.72;;
47021;SDS011;32779;52.264;6.154;2023-03-01T03:55:07;12.57;;;7.72;;
47021;SDS011;32779;52.264;6.154;2023-03-01T03:57:35;13.48;;;8.25;;
47021;SDS011;32779;52.264;6.154;2023-03-01T04:00:01;10.05;;;7.60;;
47021;SDS011;32779;52.264;6.154;2023-03-01T04:02:30;14.38;;;8.05;;
47021;SDS011;32779;52.264;6.154;2023-03-01T04:04:55;13.30;;;8.07;;
47021;SDS011;32779;52.264;6.154;2023-03-01T04:07:21;12.98;;;8.05;;
47021;SDS011;32779;52.264;6.154;2023-03-01T04:09:46;14.27;;;8.70;;
47021;SDS011;32779;52.264;6.154;2023-03-01T04:12:12;12.00;;;8.40;;
47021;SDS011;32779;52.264;6.154;2023-03-01T04:14:38;11.65;;;8.20;;
47021;SDS011;32779;52.264;6.154;2023-03-01T04:17:03;14.20;;;8.40;;
47021;SDS011;32779;52.264;6.154;2023-03-01T04:19:31;12.57;;;7.90;;
47021;SDS011;32779;52.264;6.154;2023-03-01T04:22:01;12.60;;;8.27;;
47021;SDS011;32779;52.264;6.154;2023-03-01T04:24:32;14.93;;;8.65;;
47021;SDS011;32779;52.264;6.154;2023-03-01T04:26:58;16.35;;;9.23;;
47021;SDS011;32779;52.264;6.154;2023-03-01T04:29:24;14.77;;;8.77;;
47021;SDS011;32779;52.264;6.154;2023-03-01T04:31:49;12.48;;;8.10;;
47021;SDS011;32779;52.264;6.154;2023-03-01T04:34:15;12.57;;;8.20;;
47021;SDS011;32779;52.264;6.154;2023-03-01T04:36:41;14.63;;;9.07;;
47021;SDS011;32779;52.264;6.154;2023-03-01T04:39:06;12.70;;;8.10;;
47021;SDS011;32779;52.264;6.154;2023-03-01T04:41:37;12.55;;;8.85;;
47021;SDS011;32779;52.264;6.154;2023-03-01T04:44:04;14.68;;;8.75;;
47021;SDS011;32779;52.264;6.154;2023-03-01T04:48:55;15.07;;;8.45;;
47021;SDS011;32779;52.264;6.154;2023-03-01T04:51:21;13.10;;;8.52;;
47021;SDS011;32779;52.264;6.154;2023-03-01T04:53:46;14.63;;;8.60;;
47021;SDS011;32779;52.264;6.154;2023-03-01T04:56:12;14.27;;;9.30;;
47021;SDS011;32779;52.264;6.154;2023-03-01T05:01:11;16.27;;;8.60;;
47021;SDS011;32779;52.264;6.154;2023-03-01T05:03:42;13.95;;;8.68;;
47021;SDS011;32779;52.264;6.154;2023-03-01T05:06:09;16.08;;;8.82;;
47021;SDS011;32779;52.264;6.154;2023-03-01T05:08:37;13.98;;;9.05;;
47021;SDS011;32779;52.264;6.154;2023-03-01T05:11:03;14.13;;;8.77;;
47021;SDS011;32779;52.264;6.154;2023-03-01T05:13:30;13.52;;;8.95;;
47021;SDS011;32779;52.264;6.154;2023-03-01T05:15:59;14.88;;;8.85;;
47021;SDS011;32779;52.264;6.154;2023-03-01T05:18:27;12.07;;;8.10;;
47021;SDS011;32779;52.264;6.154;2023-03-01T05:20:56;14.98;;;8.63;;
47021;SDS011;32779;52.264;6.154;2023-03-01T05:23:31;14.80;;;8.82;;
47021;SDS011;32779;52.264;6.154;2023-03-01T05:25:57;13.65;;;8.93;;
47021;SDS011;32779;52.264;6.154;2023-03-01T05:28:24;16.25;;;8.80;;
47021;SDS011;32779;52.264;6.154;2023-03-01T05:30:51;14.27;;;8.88;;
47021;SDS011;32779;52.264;6.154;2023-03-01T05:33:16;14.15;;;8.93;;
47021;SDS011;32779;52.264;6.154;2023-03-01T05:35:44;17.48;;;9.38;;
47021;SDS011;32779;52.264;6.154;2023-03-01T05:38:11;18.60;;;9.27;;
47021;SDS011;32779;52.264;6.154;2023-03-01T05:40:45;15.50;;;8.77;;
47021;SDS011;32779;52.264;6.154;2023-03-01T05:43:13;15.10;;;8.65;;
47021;SDS011;32779;52.264;6.154;2023-03-01T05:45:40;15.10;;;8.88;;
47021;SDS011;32779;52.264;6.154;2023-03-01T05:50:35;15.70;;;9.25;;
47021;SDS011;32779;52.264;6.154;2023-03-01T05:53:14;15.43;;;9.05;;
47021;SDS011;32779;52.264;6.154;2023-03-01T05:55:41;13.30;;;8.50;;
47021;SDS011;32779;52.264;6.154;2023-03-01T05:58:10;15.77;;;9.55;;
47021;SDS011;32779;52.264;6.154;2023-03-01T06:00:39;16.52;;;9.25;;
47021;SDS011;32779;52.264;6.154;2023-03-01T06:03:05;17.30;;;9.25;;
47021;SDS011;32779;52.264;6.154;2023-03-01T06:05:31;16.13;;;9.15;;
47021;SDS011;32779;52.264;6.154;2023-03-01T06:07:58;14.77;;;8.90;;
47021;SDS011;32779;52.264;6.154;2023-03-01T06:10:25;13.93;;;8.98;;
47021;SDS011;32779;52.264;6.154;2023-03-01T06:12:50;14.52;;;9.55;;
47021;SDS011;32779;52.264;6.154;2023-03-01T06:15:16;13.83;;;9.27;;
47021;SDS011;32779;52.264;6.154;2023-03-01T06:22:40;14.65;;;8.98;;
47021;SDS011;32779;52.264;6.154;2023-03-01T06:25:07;13.10;;;8.43;;
47021;SDS011;32779;52.264;6.154;2023-03-01T06:29:59;14.88;;;8.73;;
47021;SDS011;32779;52.264;6.154;2023-03-01T06:32:24;15.05;;;9.35;;
47021;SDS011;32779;52.264;6.154;2023-03-01T06:34:50;14.80;;;9.27;;
47021;SDS011;32779;52.264;6.154;2023-03-01T06:37:15;13.48;;;8.85;;
47021;SDS011;32779;52.264;6.154;2023-03-01T06:39:41;15.45;;;9.18;;
47021;SDS011;32779;52.264;6.154;2023-03-01T06:42:08;14.48;;;9.70;;
47021;SDS011;32779;52.264;6.154;2023-03-01T06:44:35;14.82;;;9.45;;
47021;SDS011;32779;52.264;6.154;2023-03-01T06:47:01;14.85;;;9.98;;
47021;SDS011;32779;52.264;6.154;2023-03-01T06:49:28;13.40;;;9.73;;
47021;SDS011;32779;52.264;6.154;2023-03-01T06:51:54;17.80;;;10.07;;
47021;SDS011;32779;52.264;6.154;2023-03-01T06:54:19;18.35;;;10.45;;
47021;SDS011;32779;52.264;6.154;2023-03-01T06:56:47;18.40;;;11.63;;
47021;SDS011;32779;52.264;6.154;2023-03-01T06:59:14;17.42;;;11.82;;
47021;SDS011;32779;52.264;6.154;2023-03-01T07:01:40;24.33;;;13.20;;
47021;SDS011;32779;52.264;6.154;2023-03-01T07:04:05;28.83;;;14.55;;
47021;SDS011;32779;52.264;6.154;2023-03-01T07:06:31;27.88;;;15.13;;
47021;SDS011;32779;52.264;6.154;2023-03-01T07:08:57;27.67;;;15.48;;
47021;SDS011;32779;52.264;6.154;2023-03-01T07:11:22;28.80;;;15.25;;
47021;SDS011;32779;52.264;6.154;2023-03-01T07:13:49;24.88;;;15.52;;
47021;SDS011;32779;52.264;6.154;2023-03-01T07:16:14;31.88;;;17.13;;
47021;SDS011;32779;52.264;6.154;2023-03-01T07:18:40;27.88;;;15.88;;
47021;SDS011;32779;52.264;6.154;2023-03-01T07:21:07;25.80;;;16.30;;
47021;SDS011;32779;52.264;6.154;2023-03-01T07:23:34;27.48;;;16.42;;
47021;SDS011;32779;52.264;6.154;2023-03-01T07:26:00;26.65;;;16.13;;
47021;SDS011;32779;52.264;6.154;2023-03-01T07:28:26;28.95;;;16.13;;
47021;SDS011;32779;52.264;6.154;2023-03-01T07:33:17;25.48;;;15.68;;
47021;SDS011;32779;52.264;6.154;2023-03-01T07:35:43;31.08;;;15.68;;
47021;SDS011;32779;52.264;6.154;2023-03-01T07:38:09;35.28;;;15.93;;
47021;SDS011;32779;52.264;6.154;2023-03-01T07:40:37;27.48;;;14.82;;
47021;SDS011;32779;52.264;6.154;2023-03-01T07:43:03;29.52;;;14.55;;
47021;SDS011;32779;52.264;6.154;2023-03-01T07:45:28;33.83;;;14.90;;
47021;SDS011;32779;52.264;6.154;2023-03-01T07:47:55;33.22;;;14.68;;
47021;SDS011;32779;52.264;6.154;2023-03-01T07:50:21;28.13;;;14.48;;
47021;SDS011;32779;52.264;6.154;2023-03-01T07:52:48;21.80;;;13.18;;
47021;SDS011;32779;52.264;6.154;2023-03-01T07:55:15;20.80;;;13.23;;
47021;SDS011;32779;52.264;6.154;2023-03-01T07:57:41;21.80;;;12.68;;
47021;SDS011;32779;52.264;6.154;2023-03-01T08:00:09;21.15;;;12.32;;
47021;SDS011;32779;52.264;6.154;2023-03-01T08:02:36;20.17;;;11.40;;
47021;SDS011;32779;52.264;6.154;2023-03-01T08:05:01;19.13;;;11.13;;
47021;SDS011;32779;52.264;6.154;2023-03-01T08:07:27;15.23;;;10.75;;
47021;SDS011;32779;52.264;6.154;2023-03-01T08:09:53;20.05;;;10.50;;
47021;SDS011;32779;52.264;6.154;2023-03-01T08:12:18;18.45;;;10.48;;
47021;SDS011;32779;52.264;6.154;2023-03-01T08:14:44;16.35;;;10.73;;
47021;SDS011;32779;52.264;6.154;2023-03-01T08:17:10;16.90;;;10.77;;
47021;SDS011;32779;52.264;6.154;2023-03-01T08:19:35;16.48;;;9.77;;
47021;SDS011;32779;52.264;6.154;2023-03-01T08:22:02;15.05;;;9.13;;
47021;SDS011;32779;52.264;6.154;2023-03-01T08:24:27;14.50;;;9.55;;
47021;SDS011;32779;52.264;6.154;2023-03-01T08:26:53;15.15;;;9.20;;
47021;SDS011;32779;52.264;6.154;2023-03-01T08:29:19;13.27;;;8.52;;
47021;SDS011;32779;52.264;6.154;2023-03-01T08:34:13;13.63;;;8.82;;
47021;SDS011;32779;52.264;6.154;2023-03-01T08:36:42;15.27;;;8.48;;
47021;SDS011;32779;52.264;6.154;2023-03-01T08:39:09;14.68;;;7.78;;
47021;SDS011;32779;52.264;6.154;2023-03-01T08:41:36;12.38;;;8.18;;
47021;SDS011;32779;52.264;6.154;2023-03-01T08:44:04;16.90;;;7.28;;
47021;SDS011;32779;52.264;6.154;2023-03-01T08:46:31;13.23;;;7.18;;
47021;SDS011;32779;52.264;6.154;2023-03-01T08:49:03;10.68;;;6.78;;
47021;SDS011;32779;52.264;6.154;2023-03-01T08:51:29;12.00;;;6.82;;
47021;SDS011;32779;52.264;6.154;2023-03-01T08:53:56;11.05;;;6.57;;
47021;SDS011;32779;52.264;6.154;2023-03-01T08:56:22;11.32;;;6.47;;
47021;SDS011;32779;52.264;6.154;2023-03-01T08:58:48;13.02;;;7.13;;
47021;SDS011;32779;52.264;6.154;2023-03-01T09:01:15;11.15;;;6.28;;
47021;SDS011;32779;52.264;6.154;2023-03-01T09:03:43;11.13;;;7.00;;
47021;SDS011;32779;52.264;6.154;2023-03-01T09:06:10;11.88;;;7.10;;
47021;SDS011;32779;52.264;6.154;2023-03-01T09:08:41;11.32;;;6.80;;
47021;SDS011;32779;52.264;6.154;2023-03-01T09:11:12;11.23;;;7.25;;
47021;SDS011;32779;52.264;6.154;2023-03-01T09:13:41;12.63;;;6.63;;
47021;SDS011;32779;52.264;6.154;2023-03-01T09:16:07;12.60;;;7.15;;
47021;SDS011;32779;52.264;6.154;2023-03-01T09:18:33;11.48;;;7.10;;
47021;SDS011;32779;52.264;6.154;2023-03-01T09:21:04;10.82;;;6.45;;
47021;SDS011;32779;52.264;6.154;2023-03-01T09:23:38;12.05;;;5.93;;
47021;SDS011;32779;52.264;6.154;2023-03-01T09:26:10;9.25;;;5.75;;
47021;SDS011;32779;52.264;6.154;2023-03-01T09:28:41;9.75;;;5.00;;
47021;SDS011;32779;52.264;6.154;2023-03-01T09:31:07;10.18;;;5.15;;
47021;SDS011;32779;52.264;6.154;2023-03-01T09:33:33;7.07;;;4.95;;
47021;SDS011;32779;52.264;6.154;2023-03-01T09:36:00;8.57;;;4.20;;
47021;SDS011;32779;52.264;6.154;2023-03-01T09:38:30;11.40;;;5.38;;
47021;SDS011;32779;52.264;6.154;2023-03-01T09:40:56;9.40;;;5.22;;
47021;SDS011;32779;52.264;6.154;2023-03-01T09:43:35;10.18;;;4.43;;
47021;SDS011;32779;52.264;6.154;2023-03-01T09:46:09;10.37;;;5.87;;
47021;SDS011;32779;52.264;6.154;2023-03-01T09:48:41;9.38;;;5.13;;
47021;SDS011;32779;52.264;6.154;2023-03-01T09:51:12;7.22;;;4.32;;
47021;SDS011;32779;52.264;6.154;2023-03-01T09:53:44;7.65;;;4.10;;
47021;SDS011;32779;52.264;6.154;2023-03-01T09:56:24;9.82;;;4.65;;
47021;SDS011;32779;52.264;6.154;2023-03-01T10:01:58;8.88;;;4.88;;
47021;SDS011;32779;52.264;6.154;2023-03-01T10:07:36;7.60;;;4.97;;
47021;SDS011;32779;52.264;6.154;2023-03-01T10:10:10;8.18;;;4.68;;
47021;SDS011;32779;52.264;6.154;2023-03-01T10:13:26;7.15;;;4.47;;
47021;SDS011;32779;52.264;6.154;2023-03-01T10:15:56;8.10;;;4.57;;
47021;SDS011;32779;52.264;6.154;2023-03-01T10:18:38;7.68;;;4.25;;
47021;SDS011;32779;52.264;6.154;2023-03-01T10:21:14;6.97;;;3.85;;
47021;SDS011;32779;52.264;6.154;2023-03-01T10:23:41;8.85;;;3.72;;
47021;SDS011;32779;52.264;6.154;2023-03-01T10:26:29;8.20;;;4.20;;
47021;SDS011;32779;52.264;6.154;2023-03-01T10:31:35;7.75;;;3.78;;
47021;SDS011;32779;52.264;6.154;2023-03-01T10:34:09;7.75;;;4.32;;
47021;SDS011;32779;52.264;6.154;2023-03-01T10:36:48;8.75;;;4.70;;
47021;SDS011;32779;52.264;6.154;2023-03-01T10:39:17;6.72;;;4.50;;
47021;SDS011;32779;52.264;6.154;2023-03-01T10:41:55;10.25;;;4.60;;
47021;SDS011;32779;52.264;6.154;2023-03-01T10:44:36;8.88;;;4.60;;
47021;SDS011;32779;52.264;6.154;2023-03-01T10:47:04;11.25;;;4.40;;
47021;SDS011;32779;52.264;6.154;2023-03-01T10:49:36;7.00;;;3.55;;
47021;SDS011;32779;52.264;6.154;2023-03-01T10:52:11;5.07;;;3.80;;
47021;SDS011;32779;52.264;6.154;2023-03-01T10:54:50;6.10;;;3.58;;
47021;SDS011;32779;52.264;6.154;2023-03-01T10:57:24;6.20;;;3.20;;
47021;SDS011;32779;52.264;6.154;2023-03-01T11:00:10;5.80;;;3.47;;
47021;SDS011;32779;52.264;6.154;2023-03-01T11:02:51;5.60;;;2.80;;
47021;SDS011;32779;52.264;6.154;2023-03-01T11:05:27;6.55;;;3.45;;
47021;SDS011;32779;52.264;6.154;2023-03-01T11:07:58;5.00;;;3.47;;
47021;SDS011;32779;52.264;6.154;2023-03-01T11:10:26;6.13;;;3.13;;
47021;SDS011;32779;52.264;6.154;2023-03-01T11:13:18;6.10;;;3.28;;
47021;SDS011;32779;52.264;6.154;2023-03-01T11:16:00;7.15;;;3.28;;
47021;SDS011;32779;52.264;6.154;2023-03-01T11:18:28;5.10;;;3.15;;
47021;SDS011;32779;52.264;6.154;2023-03-01T11:20:55;5.60;;;3.17;;
47021;SDS011;32779;52.264;6.154;2023-03-01T11:23:24;5.72;;;3.58;;
47021;SDS011;32779;52.264;6.154;2023-03-01T11:25:56;5.63;;;3.33;;
47021;SDS011;32779;52.264;6.154;2023-03-01T11:28:27;11.50;;;3.75;;
47021;SDS011;32779;52.264;6.154;2023-03-01T11:42:28;7.50;;;3.72;;
47021;SDS011;32779;52.264;6.154;2023-03-01T11:45:11;5.43;;;3.22;;
47021;SDS011;32779;52.264;6.154;2023-03-01T11:50:20;5.63;;;3.25;;
47021;SDS011;32779;52.264;6.154;2023-03-01T11:55:30;6.28;;;2.90;;
47021;SDS011;32779;52.264;6.154;2023-03-01T12:08:36;6.82;;;3.20;;
47021;SDS011;32779;52.264;6.154;2023-03-01T12:14:05;6.10;;;3.70;;
47021;SDS011;32779;52.264;6.154;2023-03-01T12:22:52;7.05;;;3.40;;
47021;SDS011;32779;52.264;6.154;2023-03-01T12:25:24;6.30;;;3.30;;
47021;SDS011;32779;52.264;6.154;2023-03-01T12:33:34;8.55;;;3.63;;
47021;SDS011;32779;52.264;6.154;2023-03-01T12:36:10;7.50;;;3.20;;
47021;SDS011;32779;52.264;6.154;2023-03-01T12:41:36;5.82;;;3.22;;
47021;SDS011;32779;52.264;6.154;2023-03-01T12:44:17;5.78;;;3.40;;
47021;SDS011;32779;52.264;6.154;2023-03-01T12:49:36;6.72;;;3.38;;
47021;SDS011;32779;52.264;6.154;2023-03-01T12:52:49;8.38;;;3.28;;
47021;SDS011;32779;52.264;6.154;2023-03-01T12:55:03;4.28;;;2.72;;
47021;SDS011;32779;52.264;6.154;2023-03-01T13:03:31;6.55;;;3.55;;
47021;SDS011;32779;52.264;6.154;2023-03-01T13:06:25;6.75;;;2.88;;
47021;SDS011;32779;52.264;6.154;2023-03-01T13:11:41;5.57;;;3.13;;
47021;SDS011;32779;52.264;6.154;2023-03-01T13:16:45;6.35;;;2.50;;
47021;SDS011;32779;52.264;6.154;2023-03-01T13:19:17;5.43;;;2.92;;
47021;SDS011;32779;52.264;6.154;2023-03-01T13:21:51;5.97;;;3.17;;
47021;SDS011;32779;52.264;6.154;2023-03-01T13:24:31;5.30;;;2.88;;
47021;SDS011;32779;52.264;6.154;2023-03-01T13:29:43;5.65;;;3.10;;
47021;SDS011;32779;52.264;6.154;2023-03-01T13:37:48;4.75;;;3.00;;
47021;SDS011;32779;52.264;6.154;2023-03-01T13:42:46;8.27;;;3.10;;
47021;SDS011;32779;52.264;6.154;2023-03-01T13:45:21;4.88;;;3.13;;
47021;SDS011;32779;52.264;6.154;2023-03-01T13:47:49;7.22;;;2.95;;
47021;SDS011;32779;52.264;6.154;2023-03-01T13:50:20;4.72;;;2.75;;
47021;SDS011;32779;52.264;6.154;2023-03-01T13:53:02;6.68;;;3.00;;
47021;SDS011;32779;52.264;6.154;2023-03-01T13:55:43;6.43;;;3.08;;
47021;SDS011;32779;52.264;6.154;2023-03-01T13:58:15;5.10;;;2.38;;
47021;SDS011;32779;52.264;6.154;2023-03-01T14:00:54;4.97;;;3.08;;
47021;SDS011;32779;52.264;6.154;2023-03-01T14:03:20;6.57;;;3.10;;
47021;SDS011;32779;52.264;6.154;2023-03-01T14:06:00;5.72;;;3.05;;
47021;SDS011;32779;52.264;6.154;2023-03-01T14:08:36;3.72;;;2.95;;
47021;SDS011;32779;52.264;6.154;2023-03-01T14:19:21;7.15;;;3.55;;
47021;SDS011;32779;52.264;6.154;2023-03-01T14:22:02;5.28;;;3.65;;
47021;SDS011;32779;52.264;6.154;2023-03-01T14:24:29;5.68;;;3.60;;
47021;SDS011;32779;52.264;6.154;2023-03-01T14:27:00;7.40;;;3.50;;
47021;SDS011;32779;52.264;6.154;2023-03-01T14:29:27;6.53;;;4.00;;
47021;SDS011;32779;52.264;6.154;2023-03-01T14:32:08;6.18;;;3.33;;
47021;SDS011;32779;52.264;6.154;2023-03-01T14:34:35;5.50;;;3.40;;
47021;SDS011;32779;52.264;6.154;2023-03-01T14:37:10;5.50;;;4.03;;
47021;SDS011;32779;52.264;6.154;2023-03-01T14:39:48;9.73;;;3.90;;
47021;SDS011;32779;52.264;6.154;2023-03-01T14:42:14;6.97;;;3.70;;
47021;SDS011;32779;52.264;6.154;2023-03-01T14:49:38;5.72;;;3.30;;
47021;SDS011;32779;52.264;6.154;2023-03-01T14:52:06;4.38;;;3.33;;
47021;SDS011;32779;52.264;6.154;2023-03-01T14:57:14;4.55;;;3.40;;
47021;SDS011;32779;52.264;6.154;2023-03-01T14:59:48;7.63;;;4.10;;
47021;SDS011;32779;52.264;6.154;2023-03-01T15:02:16;6.47;;;3.42;;
47021;SDS011;32779;52.264;6.154;2023-03-01T15:05:01;8.05;;;4.18;;
47021;SDS011;32779;52.264;6.154;2023-03-01T15:07:31;5.85;;;3.30;;
47021;SDS011;32779;52.264;6.154;2023-03-01T15:10:00;7.75;;;4.13;;
47021;SDS011;32779;52.264;6.154;2023-03-01T15:14:56;7.90;;;3.75;;
47021;SDS011;32779;52.264;6.154;2023-03-01T15:17:35;5.78;;;4.10;;
47021;SDS011;32779;52.264;6.154;2023-03-01T15:20:13;5.80;;;3.60;;
47021;SDS011;32779;52.264;6.154;2023-03-01T15:22:44;7.43;;;3.58;;
47021;SDS011;32779;52.264;6.154;2023-03-01T15:25:16;9.57;;;3.72;;
47021;SDS011;32779;52.264;6.154;2023-03-01T15:27:48;6.30;;;3.85;;
47021;SDS011;32779;52.264;6.154;2023-03-01T15:30:36;6.85;;;3.72;;
47021;SDS011;32779;52.264;6.154;2023-03-01T15:35:53;5.53;;;3.05;;
47021;SDS011;32779;52.264;6.154;2023-03-01T15:38:36;7.30;;;3.65;;
47021;SDS011;32779;52.264;6.154;2023-03-01T15:43:59;8.02;;;3.20;;
47021;SDS011;32779;52.264;6.154;2023-03-01T15:46:26;5.72;;;3.50;;
47021;SDS011;32779;52.264;6.154;2023-03-01T15:48:59;6.93;;;3.40;;
47021;SDS011;32779;52.264;6.154;2023-03-01T15:51:31;7.05;;;3.60;;
47021;SDS011;32779;52.264;6.154;2023-03-01T15:54:05;5.82;;;3.40;;
47021;SDS011;32779;52.264;6.154;2023-03-01T15:56:39;7.13;;;3.38;;
47021;SDS011;32779;52.264;6.154;2023-03-01T15:59:04;5.63;;;2.97;;
47021;SDS011;32779;52.264;6.154;2023-03-01T16:01:32;6.32;;;3.22;;
47021;SDS011;32779;52.264;6.154;2023-03-01T16:03:59;6.95;;;3.85;;
47021;SDS011;32779;52.264;6.154;2023-03-01T16:06:24;7.07;;;3.03;;
47021;SDS011;32779;52.264;6.154;2023-03-01T16:08:50;9.05;;;3.50;;
47021;SDS011;32779;52.264;6.154;2023-03-01T16:11:17;8.40;;;3.95;;
47021;SDS011;32779;52.264;6.154;2023-03-01T16:13:44;6.25;;;3.05;;
47021;SDS011;32779;52.264;6.154;2023-03-01T16:16:10;7.10;;;3.22;;
47021;SDS011;32779;52.264;6.154;2023-03-01T16:18:39;5.40;;;3.60;;
47021;SDS011;32779;52.264;6.154;2023-03-01T16:21:05;6.05;;;3.42;;
47021;SDS011;32779;52.264;6.154;2023-03-01T16:23:31;9.25;;;3.63;;
47021;SDS011;32779;52.264;6.154;2023-03-01T16:26:00;6.95;;;3.30;;
47021;SDS011;32779;52.264;6.154;2023-03-01T16:28:26;4.95;;;3.53;;
47021;SDS011;32779;52.264;6.154;2023-03-01T16:30:51;6.30;;;3.63;;
47021;SDS011;32779;52.264;6.154;2023-03-01T16:33:17;4.93;;;3.25;;
47021;SDS011;32779;52.264;6.154;2023-03-01T16:35:43;6.22;;;3.35;;
47021;SDS011;32779;52.264;6.154;2023-03-01T16:38:09;6.70;;;3.10;;
47021;SDS011;32779;52.264;6.154;2023-03-01T16:43:00;5.55;;;3.13;;
47021;SDS011;32779;52.264;6.154;2023-03-01T16:45:27;7.90;;;4.18;;
47021;SDS011;32779;52.264;6.154;2023-03-01T16:47:57;5.05;;;3.13;;
47021;SDS011;32779;52.264;6.154;2023-03-01T16:52:49;9.27;;;4.05;;
47021;SDS011;32779;52.264;6.154;2023-03-01T16:55:14;5.82;;;3.33;;
47021;SDS011;32779;52.264;6.154;2023-03-01T16:57:40;5.75;;;3.28;;
47021;SDS011;32779;52.264;6.154;2023-03-01T17:00:06;6.22;;;3.15;;
47021;SDS011;32779;52.264;6.154;2023-03-01T17:02:36;10.35;;;3.50;;
47021;SDS011;32779;52.264;6.154;2023-03-01T17:05:02;5.38;;;3.90;;
47021;SDS011;32779;52.264;6.154;2023-03-01T17:07:29;5.68;;;4.13;;
47021;SDS011;32779;52.264;6.154;2023-03-01T17:09:58;5.53;;;3.22;;
47021;SDS011;32779;52.264;6.154;2023-03-01T17:12:24;6.30;;;3.88;;
47021;SDS011;32779;52.264;6.154;2023-03-01T17:14:50;5.38;;;3.80;;
47021;SDS011;32779;52.264;6.154;2023-03-01T17:17:16;6.00;;;3.65;;
47021;SDS011;32779;52.264;6.154;2023-03-01T17:19:41;7.20;;;3.80;;
47021;SDS011;32779;52.264;6.154;2023-03-01T17:22:09;8.05;;;4.22;;